Time;durP1;ratioP1;P1;durP2;ratioP2;P2;SDS_P1;SDS_P2;PMS_P1;PMS_P2;Temp;Humidity;BMP_temperature;BMP_pressure;BME280_temperature;BME280_humidity;BME280_pressure;Samples;Min_cycle;Max_cycle;Signal;HPM_P1;HPM_P2
2022/09/26 04:39:28;;;;;;;11.50;3.37;;;12.50;51.00;;;;;;3849925;23;20512;-95
2022/09/26 04:42:23;;;;;;;5.43;3.10;;;12.50;47.60;;;;;;5032053;28;20210;-96
2022/09/26 04:45:25;;;;;;;;;;;;;;;;;;;;;
2022/09/26 04:48:45;;;;;;;;;;;;;;;;;;;;;
2022/09/26 04:55:18;;;;;;;9.80;4.43;;;12.30;49.50;;;;;;5021016;28;20230;-96
2022/09/26 04:57:45;;;;;;;9.20;5.07;;;12.40;49.50;;;;;;4992672;28;20203;-96
2022/09/26 05:00:13;;;;;;;10.57;5.20;;;12.60;43.20;;;;;;5022262;28;20187;-94
2022/09/26 05:02:41;;;;;;;8.77;5.10;;;12.40;44.30;;;;;;5026151;28;20206;-91
2022/09/26 05:05:08;;;;;;;7.40;4.70;;;12.40;44.20;;;;;;5015188;28;20245;-94
2022/09/26 05:07:39;;;;;;;8.27;5.17;;;12.50;45.30;;;;;;5019050;28;20224;-94
2022/09/26 05:10:06;;;;;;;9.83;5.17;;;12.50;45.90;;;;;;5012962;28;20231;-93
2022/09/26 05:12:33;;;;;;;8.67;4.27;;;12.40;45.20;;;;;;5038431;28;20231;-94
2022/09/26 05:15:07;;;;;;;11.30;4.70;;;12.40;44.20;;;;;;5040521;28;20165;-93
2022/09/26 05:17:37;;;;;;;10.77;5.50;;;12.40;45.50;;;;;;5040969;28;20189;-94
2022/09/26 05:20:13;;;;;;;7.17;4.83;;;12.40;45.90;;;;;;5040339;23;20209;-94
2022/09/26 05:22:42;;;;;;;9.73;5.00;;;12.40;45.10;;;;;;4988251;28;20606;-96
2022/09/26 05:28:30;;;;;;;10.30;5.00;;;12.40;35.70;;;;;;5011587;28;20213;-95
2022/09/26 05:30:56;;;;;;;9.47;5.33;;;12.40;33.60;;;;;;5007244;28;20171;-96
2022/09/26 05:33:31;;;;;;;9.37;4.90;;;12.40;33.60;;;;;;5006764;28;20183;-94
2022/09/26 05:35:59;;;;;;;7.90;4.40;;;12.40;33.90;;;;;;5000072;28;20199;-95
2022/09/26 05:38:48;;;;;;;10.57;4.27;;;12.40;33.90;;;;;;5019722;28;20180;-92
2022/09/26 05:41:15;;;;;;;10.63;4.77;;;12.40;34.00;;;;;;5003784;28;20163;-91
2022/09/26 05:43:48;;;;;;;8.40;4.10;;;12.40;32.90;;;;;;5102636;23;20215;-89
2022/09/26 05:46:22;;;;;;;9.20;4.07;;;12.50;29.20;;;;;;5020608;28;20194;-91
2022/09/26 05:48:50;;;;;;;7.77;4.20;;;12.20;31.30;;;;;;5017626;28;20201;-95
2022/09/26 05:54:41;;;;;;;11.03;4.30;;;12.40;32.00;;;;;;5014935;28;20163;-93
2022/09/26 06:07:26;;;;;;;6.87;3.67;;;12.40;37.80;;;;;;5156043;23;20226;-95
2022/09/26 06:10:04;;;;;;;13.33;3.77;;;12.50;35.30;;;;;;4997662;28;20196;-93
2022/09/26 06:12:33;;;;;;;9.67;4.27;;;12.50;36.60;;;;;;5009006;28;20225;-92
2022/09/26 06:14:59;;;;;;;6.47;3.67;;;12.50;37.20;;;;;;5004768;28;20532;-92
2022/09/26 06:17:28;;;;;;;14.50;5.20;;;12.60;38.00;;;;;;5002688;28;20190;-93
2022/09/26 06:19:53;;;;;;;8.93;3.93;;;12.50;39.50;;;;;;5006009;28;20175;-92
2022/09/26 06:22:22;;;;;;;7.57;3.67;;;12.50;41.90;;;;;;5006382;28;20173;-94
2022/09/26 06:24:49;;;;;;;8.57;3.80;;;12.50;41.10;;;;;;5001968;28;20188;-95
2022/09/26 06:27:24;;;;;;;5.80;3.67;;;12.50;41.20;;;;;;5014890;28;20211;-94
2022/09/26 06:29:51;;;;;;;8.20;3.73;;;12.80;41.60;;;;;;5010774;28;20179;-91
2022/09/26 06:32:17;;;;;;;9.93;4.23;;;12.60;41.60;;;;;;5000533;28;20170;-93
2022/09/26 06:34:47;;;;;;;7.10;3.57;;;12.70;42.50;;;;;;5018509;28;20179;-91
2022/09/26 06:37:20;;;;;;;7.67;3.37;;;12.70;42.80;;;;;;5001368;28;20205;-93
2022/09/26 06:39:48;;;;;;;7.93;3.63;;;12.60;48.50;;;;;;5013126;28;20222;-92
2022/09/26 06:42:17;;;;;;;6.70;3.73;;;12.60;51.70;;;;;;5013713;28;20255;-94
2022/09/26 06:44:44;;;;;;;10.63;4.27;;;12.60;51.00;;;;;;4995222;28;20206;-92
2022/09/26 06:47:39;;;;;;;9.83;3.70;;;12.60;55.90;;;;;;5007107;28;20216;-93
2022/09/26 06:50:48;;;;;;;10.13;3.43;;;12.50;58.40;;;;;;5014464;28;20167;-92
2022/09/26 06:53:14;;;;;;;7.23;3.63;;;12.60;60.00;;;;;;5017886;28;20254;-93
2022/09/26 06:55:42;;;;;;;8.17;3.40;;;12.60;59.20;;;;;;5109569;23;20218;-93
2022/09/26 06:58:13;;;;;;;7.23;3.10;;;12.60;60.70;;;;;;5026145;28;20158;-93
2022/09/26 07:00:42;;;;;;;10.10;3.30;;;12.60;61.30;;;;;;5029727;28;20672;-94
2022/09/26 07:03:08;;;;;;;5.50;3.30;;;12.60;61.60;;;;;;5027502;28;20172;-93
2022/09/26 07:05:41;;;;;;;8.63;3.53;;;12.60;63.50;;;;;;5025437;28;20175;-94
2022/09/26 07:08:08;;;;;;;7.17;4.17;;;12.60;64.10;;;;;;5024580;28;20200;-93
2022/09/26 07:10:37;;;;;;;10.20;3.57;;;12.60;62.90;;;;;;5027891;28;20202;-94
2022/09/26 07:13:16;;;;;;;9.03;4.03;;;12.70;62.50;;;;;;5031536;28;20183;-94
2022/09/26 07:15:46;;;;;;;9.17;4.60;;;12.80;61.80;;;;;;5012630;28;20566;-92
2022/09/26 07:18:13;;;;;;;11.60;4.80;;;12.80;59.50;;;;;;5025385;28;20184;-91
2022/09/26 07:20:41;;;;;;;9.57;4.37;;;12.90;60.30;;;;;;5024579;28;20204;-92
2022/09/26 07:23:13;;;;;;;10.70;4.30;;;12.80;61.70;;;;;;5023405;28;20183;-93
2022/09/26 07:25:39;;;;;;;12.57;4.73;;;12.80;59.50;;;;;;5006948;28;20201;-93
2022/09/26 07:28:06;;;;;;;10.73;4.40;;;12.90;57.70;;;;;;5021752;28;20212;-92
2022/09/26 07:30:32;;;;;;;6.37;3.60;;;12.90;56.10;;;;;;5023498;28;20173;-95
2022/09/26 07:33:11;;;;;;;10.10;4.23;;;12.90;54.10;;;;;;5027588;28;20192;-94
2022/09/26 07:38:07;;;;;;;9.90;4.07;;;12.90;56.40;;;;;;5035909;28;20196;-93
2022/09/26 07:40:33;;;;;;;14.80;4.73;;;12.90;57.70;;;;;;5093594;23;20266;-93
2022/09/26 07:43:12;;;;;;;7.77;4.20;;;12.80;58.40;;;;;;5002050;28;20174;-91
2022/09/26 07:51:25;;;;;;;9.13;4.70;;;13.00;58.70;;;;;;5015447;28;20172;-93
2022/09/26 07:54:25;;;;;;;7.73;4.30;;;12.90;56.40;;;;;;5002635;28;20202;-93
2022/09/26 07:57:21;;;;;;;7.97;4.03;;;12.90;56.90;;;;;;4984034;28;20228;-93
2022/09/26 08:00:11;;;;;;;10.30;4.33;;;12.90;54.90;;;;;;4989290;28;20204;-92
2022/09/26 08:02:44;;;;;;;9.63;4.37;;;12.90;54.60;;;;;;4997251;28;20192;-94
2022/09/26 08:05:19;;;;;;;11.57;3.93;;;13.00;53.80;;;;;;4997476;28;20162;-94
2022/09/26 08:08:01;;;;;;;13.50;4.33;;;13.20;51.40;;;;;;5231139;23;20229;-94
2022/09/26 08:10:34;;;;;;;8.57;3.77;;;13.30;49.00;;;;;;5017191;28;20173;-92
2022/09/26 08:13:18;;;;;;;10.40;3.93;;;13.30;46.30;;;;;;5018238;28;20193;-93
2022/09/26 08:15:48;;;;;;;11.33;3.40;;;13.40;40.10;;;;;;5160303;23;20286;-93
2022/09/26 08:20:46;;;;;;;8.37;3.70;;;13.40;37.60;;;;;;5127433;23;20198;-92
2022/09/26 08:23:17;;;;;;;10.50;3.90;;;13.40;36.20;;;;;;5068828;23;20217;-93
2022/09/26 08:25:52;;;;;;;9.67;3.87;;;13.50;33.20;;;;;;5027161;23;20220;-92
2022/09/26 08:28:22;;;;;;;9.80;3.63;;;13.40;31.80;;;;;;5016431;28;20198;-92
2022/09/26 08:31:09;;;;;;;11.37;4.00;;;13.40;33.50;;;;;;5017912;28;20160;-94
2022/09/26 08:33:43;;;;;;;7.60;3.20;;;13.40;36.00;;;;;;5014577;28;20614;-92
2022/09/26 08:36:17;;;;;;;8.60;3.47;;;13.50;35.50;;;;;;5013927;28;20230;-94
2022/09/26 08:38:49;;;;;;;10.07;3.60;;;13.50;31.40;;;;;;5012539;28;20240;-94
2022/09/26 08:42:07;;;;;;;7.50;3.63;;;13.50;31.50;;;;;;5010790;28;20171;-92
2022/09/26 08:48:26;;;;;;;11.03;3.73;;;13.60;29.90;;;;;;5006581;28;20280;-92
2022/09/26 08:51:15;;;;;;;7.30;3.53;;;13.50;38.00;;;;;;5001335;28;20624;-93
2022/09/26 08:53:52;;;;;;;7.53;3.20;;;13.60;37.60;;;;;;4999244;28;20277;-93
2022/09/26 08:56:25;;;;;;;8.27;3.17;;;13.60;42.50;;;;;;5006607;28;20176;-93
2022/09/26 09:04:46;;;;;;;9.27;3.00;;;13.60;44.50;;;;;;4996347;28;20210;-94
2022/09/26 09:07:52;;;;;;;6.23;3.03;;;13.70;44.80;;;;;;5084002;22;20248;-91
2022/09/26 09:10:38;;;;;;;8.30;3.53;;;13.60;51.20;;;;;;4997979;28;20192;-92
2022/09/26 09:13:24;;;;;;;9.13;3.50;;;13.60;58.30;;;;;;5032845;23;20231;-91
2022/09/26 09:16:29;;;;;;;5.87;3.30;;;13.50;61.20;;;;;;5016987;28;20166;-93
2022/09/26 09:19:13;;;;;;;7.03;3.80;;;13.50;64.80;;;;;;5053752;23;20215;-93
2022/09/26 09:33:08;;;;;;;9.20;3.80;;;13.40;82.70;;;;;;5038888;28;20209;-92
2022/09/26 09:35:59;;;;;;;8.23;3.60;;;13.40;84.00;;;;;;5044309;23;20218;-92
2022/09/26 09:38:29;;;;;;;8.50;4.90;;;13.30;85.50;;;;;;5020456;28;20210;-90
2022/09/26 09:41:13;;;;;;;11.10;4.60;;;13.40;90.40;;;;;;5011713;28;20650;-92
2022/09/26 09:43:40;;;;;;;8.47;4.00;;;13.30;91.80;;;;;;5003748;28;20226;-93
2022/09/26 09:46:38;;;;;;;10.37;4.10;;;13.40;92.00;;;;;;5003130;28;20197;-91
2022/09/26 09:49:21;;;;;;;8.90;4.10;;;13.30;92.30;;;;;;4988597;28;20218;-92
2022/09/26 09:52:02;;;;;;;8.07;4.23;;;13.30;94.20;;;;;;5003301;28;20643;-90
2022/09/26 09:54:54;;;;;;;8.77;3.70;;;13.30;94.90;;;;;;5004126;28;20179;-91
2022/09/26 09:57:33;;;;;;;7.10;3.77;;;13.30;95.00;;;;;;5007440;28;20648;-92
2022/09/26 10:00:26;;;;;;;7.87;4.60;;;13.30;95.00;;;;;;5004077;28;20204;-90
2022/09/26 10:03:24;;;;;;;7.43;3.80;;;13.30;95.70;;;;;;5006268;28;20190;-94
2022/09/26 10:05:58;;;;;;;8.63;3.53;;;13.40;95.50;;;;;;5009217;28;20253;-92
2022/09/26 10:08:31;;;;;;;9.90;4.27;;;13.30;94.40;;;;;;4982440;28;20241;-93
2022/09/26 10:11:21;;;;;;;8.60;4.07;;;13.20;95.40;;;;;;5005921;28;20175;-92
2022/09/26 10:14:00;;;;;;;8.83;3.83;;;13.20;95.40;;;;;;5006593;28;20176;-93
2022/09/26 10:16:29;;;;;;;8.03;3.00;;;13.20;95.30;;;;;;5003255;28;20221;-94
2022/09/26 10:19:09;;;;;;;8.23;3.47;;;13.20;95.80;;;;;;5002279;28;20180;-92
2022/09/26 10:22:12;;;;;;;;;;;;;;;;;;;;;
2022/09/26 10:34:48;;;;;;;9.33;3.60;;;13.40;98.40;;;;;;5059360;23;20233;-95
2022/09/26 10:37:43;;;;;;;9.53;4.10;;;13.40;99.50;;;;;;5006918;28;20181;-93
2022/09/26 10:40:51;;;;;;;6.40;4.27;;;13.40;99.90;;;;;;5015363;28;20188;-95
2022/09/26 10:43:50;;;;;;;9.80;3.67;;;13.30;99.90;;;;;;5006600;28;20209;-93
2022/09/26 10:46:21;;;;;;;7.83;3.37;;;13.30;99.90;;;;;;5005902;28;20187;-92
2022/09/26 10:49:13;;;;;;;10.37;3.70;;;13.30;99.90;;;;;;5003939;28;20214;-94
2022/09/26 10:52:40;;;;;;;8.23;3.70;;;13.10;99.90;;;;;;5003555;28;20196;-94
2022/09/26 10:55:58;;;;;;;;;;;;;;;;;;;;;
2022/09/26 10:58:50;;;;;;;6.53;3.23;;;12.90;99.90;;;;;;5000868;28;20275;-93
2022/09/26 11:01:58;;;;;;;6.63;3.40;;;12.90;99.90;;;;;;4982583;28;20175;-96
2022/09/26 11:08:27;;;;;;;5.10;3.17;;;12.80;99.90;;;;;;4993648;28;20240;-94
2022/09/26 11:10:57;;;;;;;10.33;4.13;;;12.80;99.90;;;;;;4954556;29;20247;-94
2022/09/26 11:14:13;;;;;;;7.20;3.50;;;12.90;99.90;;;;;;4954309;29;20248;-94
2022/09/26 11:29:24;;;;;;;7.27;4.67;;;12.80;99.90;;;;;;5010163;28;20291;-93
2022/09/26 11:32:04;;;;;;;6.57;2.53;;;12.80;99.90;;;;;;5006259;28;20191;-94
2022/09/26 11:38:17;;;;;;;7.93;2.70;;;12.70;99.90;;;;;;5022407;28;20258;-93
2022/09/26 12:02:30;;;;;;;6.27;2.53;;;13.30;99.90;;;;;;5198662;23;20253;-94
2022/09/26 12:08:34;;;;;;;;;;;;;;;;;;;;;
2022/09/26 12:11:24;;;;;;;5.80;2.53;;;13.50;99.90;;;;;;5002077;28;20350;-91
2022/09/26 12:14:24;;;;;;;4.10;2.40;;;13.50;99.90;;;;;;4999964;28;20171;-94
2022/09/26 12:17:22;;;;;;;3.23;2.13;;;13.40;99.90;;;;;;4996454;28;20195;-91
2022/09/26 12:20:44;;;;;;;4.40;2.43;;;13.40;99.90;;;;;;4999315;28;20660;-93
2022/09/26 12:23:32;;;;;;;6.03;2.20;;;13.40;99.90;;;;;;4988527;28;20168;-94
2022/09/26 12:26:09;;;;;;;8.87;2.47;;;13.40;99.90;;;;;;4984817;28;20212;-92
2022/09/26 12:28:46;;;;;;;5.47;2.43;;;13.50;99.90;;;;;;4995132;28;20576;-90
2022/09/26 12:31:46;;;;;;;6.03;2.50;;;13.40;99.90;;;;;;4998200;28;20762;-92
2022/09/26 12:34:54;;;;;;;7.33;2.53;;;13.40;99.90;;;;;;4998886;28;20175;-93
2022/09/26 12:37:48;;;;;;;3.93;2.10;;;13.50;99.90;;;;;;4997784;28;20628;-94
2022/09/26 12:40:33;;;;;;;7.60;2.70;;;13.40;99.90;;;;;;5003456;28;20175;-93
2022/09/26 12:43:12;;;;;;;5.80;2.20;;;13.40;99.90;;;;;;4997927;28;20182;-92
2022/09/26 12:46:21;;;;;;;;;;;;;;;;;;;;;
2022/09/26 12:49:31;;;;;;;5.27;2.60;;;13.40;99.90;;;;;;5011116;28;20646;-91
2022/09/26 12:52:37;;;;;;;3.93;2.50;;;13.40;99.90;;;;;;4999276;28;20173;-92
2022/09/26 12:55:26;;;;;;;5.03;2.93;;;13.40;99.90;;;;;;5006998;28;20204;-92
2022/09/26 13:00:39;;;;;;;6.00;2.70;;;13.40;99.90;;;;;;5093578;23;20253;-93
2022/09/26 13:03:20;;;;;;;5.43;2.43;;;13.40;99.90;;;;;;4557734;23;15043655;-92
2022/09/26 13:06:27;;;;;;;3.87;2.33;;;13.30;99.90;;;;;;5010365;28;20242;-94
2022/09/26 13:09:14;;;;;;;4.57;2.37;;;13.20;99.90;;;;;;5001791;28;20226;-92
2022/09/26 13:12:05;;;;;;;3.50;2.23;;;13.20;99.90;;;;;;5007938;28;20211;-92
2022/09/26 13:15:09;;;;;;;2.33;1.53;;;13.20;99.90;;;;;;5008679;28;20181;-93
2022/09/26 13:17:45;;;;;;;3.93;2.70;;;13.00;99.90;;;;;;5007165;28;20213;-92
2022/09/26 13:20:32;;;;;;;3.93;2.27;;;13.20;99.90;;;;;;5004990;28;20245;-93
2022/09/26 13:23:08;;;;;;;4.07;2.70;;;13.20;99.90;;;;;;5030533;28;20207;-92
2022/09/26 13:25:43;;;;;;;5.80;2.50;;;13.20;99.90;;;;;;5169214;23;20218;-93
2022/09/26 13:28:43;;;;;;;4.90;2.50;;;13.20;99.90;;;;;;5189400;23;20236;-92
2022/09/26 13:31:57;;;;;;;3.80;2.60;;;13.30;99.90;;;;;;4998993;28;20188;-93
2022/09/26 13:34:36;;;;;;;6.30;2.80;;;13.30;99.90;;;;;;4978516;28;20184;-93
2022/09/26 13:37:04;;;;;;;4.97;2.50;;;13.30;99.90;;;;;;5012113;28;20180;-93
2022/09/26 13:39:46;;;;;;;3.63;2.33;;;13.30;99.90;;;;;;5015695;28;20239;-92
2022/09/26 13:42:34;;;;;;;4.70;3.70;;;13.20;99.90;;;;;;5007184;28;20181;-94
2022/09/26 13:48:57;;;;;;;;;;;;;;;;;;;;;
2022/09/26 13:51:47;;;;;;;4.63;2.80;;;13.10;99.90;;;;;;4982173;28;20237;-94
2022/09/26 13:55:11;;;;;;;7.40;3.37;;;13.10;99.90;;;;;;4980761;28;20709;-94
2022/09/26 13:58:30;;;;;;;4.30;2.97;;;13.00;99.90;;;;;;4980169;28;20194;-93
2022/09/26 14:01:45;;;;;;;;;;;;;;;;;;;;;
2022/09/26 14:05:15;;;;;;;;;;;;;;;;;;;;;
2022/09/26 14:18:52;;;;;;;4.53;3.07;;;13.10;99.90;;;;;;5530167;23;20190;-94
2022/09/26 14:21:45;;;;;;;6.27;3.53;;;13.00;99.90;;;;;;5017695;28;20159;-94
2022/09/26 14:27:32;;;;;;;5.23;2.67;;;12.90;99.90;;;;;;5337651;23;20222;-93
2022/09/26 14:35:31;;;;;;;5.17;1.90;;;12.90;99.90;;;;;;5036637;28;20194;-95
2022/09/26 14:44:40;;;;;;;3.60;1.50;;;12.90;99.90;;;;;;5015756;28;20525;-90
2022/09/26 14:47:14;;;;;;;3.00;2.20;;;13.00;99.90;;;;;;5009262;28;20275;-95
2022/09/26 14:49:51;;;;;;;1.70;1.20;;;12.90;99.90;;;;;;5015050;28;20204;-95
2022/09/26 14:52:34;;;;;;;3.53;1.83;;;12.90;99.90;;;;;;5013519;28;20250;-95
2022/09/26 14:55:35;;;;;;;3.07;1.73;;;12.80;99.90;;;;;;5001139;28;20176;-95
2022/09/26 15:14:31;;;;;;;1.87;1.40;;;13.00;99.90;;;;;;6133914;23;20193;31
2022/09/26 15:17:57;;;;;;;1.67;0.93;;;13.00;99.90;;;;;;4976214;28;20206;-92
2022/09/26 15:27:34;;;;;;;1.90;1.40;;;13.20;99.90;;;;;;5655110;23;20430;-91
2022/09/26 15:36:14;;;;;;;;;;;;;;;;;;;;;
2022/09/26 15:39:31;;;;;;;2.43;1.30;;;13.10;99.90;;;;;;4996942;28;20248;-96
2022/09/26 15:54:22;;;;;;;1.80;1.13;;;13.60;99.90;;;;;;5545053;23;20213;-94
2022/09/26 16:07:49;;;;;;;2.53;1.50;;;13.80;99.90;;;;;;5092715;22;20220;-92
2022/09/26 16:10:30;;;;;;;2.37;1.80;;;13.80;99.90;;;;;;4993208;28;20203;-92
2022/09/26 16:12:59;;;;;;;2.53;1.67;;;14.00;99.90;;;;;;4974890;28;20678;-91
2022/09/26 16:15:30;;;;;;;3.63;2.03;;;14.10;99.90;;;;;;4993917;28;20183;-91
2022/09/26 16:17:57;;;;;;;3.87;1.90;;;14.10;99.90;;;;;;4995665;28;20199;-91
2022/09/26 16:20:30;;;;;;;3.13;2.10;;;14.10;99.90;;;;;;5012538;28;20183;-91
2022/09/26 16:23:07;;;;;;;4.40;2.37;;;14.20;99.90;;;;;;4995188;28;20211;-94
2022/09/26 16:25:55;;;;;;;4.63;3.00;;;14.20;99.90;;;;;;5006848;28;20182;-93
2022/09/26 16:28:41;;;;;;;4.03;2.07;;;14.40;99.90;;;;;;4995974;28;20306;-93
2022/09/26 16:49:38;;;;;;;6.27;3.60;;;15.60;95.80;;;;;;5717290;23;20210;-95
2022/09/26 16:52:44;;;;;;;6.17;3.40;;;15.30;99.10;;;;;;5325908;22;20204;-91
2022/09/26 17:03:39;;;;;;;8.67;4.23;;;14.70;99.90;;;;;;5041934;23;20318;-93
2022/09/26 17:06:06;;;;;;;10.17;5.43;;;14.60;99.90;;;;;;4995518;28;20170;-93
2022/09/26 17:08:37;;;;;;;10.87;4.63;;;14.40;99.90;;;;;;5035162;23;20224;-95
2022/09/26 17:11:13;;;;;;;7.73;2.87;;;14.00;99.90;;;;;;5001546;28;20171;-94
2022/09/26 17:13:44;;;;;;;9.17;2.70;;;13.60;99.80;;;;;;5010957;28;20202;-94
2022/09/26 17:16:46;;;;;;;6.80;2.27;;;13.60;94.50;;;;;;5019104;28;20178;-93
2022/09/26 17:21:54;;;;;;;7.73;2.57;;;13.60;90.10;;;;;;5081957;23;20268;-91
2022/09/26 17:24:24;;;;;;;7.70;2.40;;;13.50;88.70;;;;;;5019982;28;20191;-93
2022/09/26 17:27:22;;;;;;;;;;;;;;;;;;;;;
2022/09/26 17:29:58;;;;;;;8.73;2.70;;;13.50;88.00;;;;;;5031251;28;20231;-95
2022/09/26 17:32:32;;;;;;;9.10;3.30;;;13.50;85.10;;;;;;5031863;28;20639;-92
2022/09/26 17:35:47;;;;;;;8.93;3.10;;;13.50;85.70;;;;;;5032578;28;20197;-91
2022/09/26 17:38:21;;;;;;;11.73;3.67;;;13.50;86.80;;;;;;5017194;28;20171;-89
2022/09/26 17:40:59;;;;;;;11.50;3.60;;;13.50;86.30;;;;;;4995056;28;20184;-90
2022/09/26 17:43:58;;;;;;;10.93;3.77;;;13.60;88.30;;;;;;5018310;28;20213;-95
2022/09/26 17:46:50;;;;;;;8.97;3.27;;;13.60;90.90;;;;;;5175129;22;20223;-94
2022/09/26 18:02:54;;;;;;;15.13;5.17;;;13.20;96.40;;;;;;5318192;22;20230;-93
2022/09/26 18:13:34;;;;;;;;;;;;;;;;;;;;;
2022/09/26 18:16:22;;;;;;;;;;;;;;;;;;;;;
2022/09/26 18:19:31;;;;;;;;;;;;;;;;;;;;;
2022/09/26 18:21:59;;;;;;;14.10;5.73;;;12.90;99.90;;;;;;4931335;29;20230;-92
2022/09/26 18:24:28;;;;;;;13.23;4.23;;;12.80;99.90;;;;;;4939693;29;20195;-94
2022/09/26 18:27:06;;;;;;;13.37;4.60;;;12.90;99.90;;;;;;4958403;28;20673;-91
2022/09/26 18:30:06;;;;;;;13.77;4.30;;;12.80;99.90;;;;;;5005760;28;20179;-91
2022/09/26 18:32:46;;;;;;;13.10;4.30;;;12.70;99.90;;;;;;4994038;28;20712;-94
2022/09/26 18:35:46;;;;;;;13.77;4.40;;;12.80;99.90;;;;;;4991082;28;20192;-94
2022/09/26 18:38:13;;;;;;;12.87;4.53;;;12.90;99.90;;;;;;5010591;28;20196;-92
2022/09/26 18:41:10;;;;;;;14.13;4.60;;;12.80;99.90;;;;;;5007332;28;20178;-92
2022/09/26 18:43:41;;;;;;;11.07;3.80;;;12.90;99.90;;;;;;5012175;28;20186;-92
2022/09/26 18:46:16;;;;;;;13.00;4.50;;;13.00;99.90;;;;;;5000797;28;20167;-91
2022/09/26 18:51:58;;;;;;;11.30;3.80;;;12.80;99.90;;;;;;5011008;28;20195;-93
2022/09/26 18:54:30;;;;;;;10.63;3.83;;;12.90;99.90;;;;;;5015989;28;20168;-93
2022/09/26 18:59:59;;;;;;;11.77;4.07;;;12.70;99.90;;;;;;5016742;28;20199;-92
2022/09/26 19:02:41;;;;;;;10.30;2.83;;;12.70;99.90;;;;;;4990273;28;20252;-90
2022/09/26 19:05:13;;;;;;;7.77;3.10;;;12.70;99.90;;;;;;4960870;28;20183;-89
2022/09/26 19:07:43;;;;;;;8.60;3.33;;;12.70;99.90;;;;;;4993571;28;20204;-90
2022/09/26 19:10:21;;;;;;;10.33;2.87;;;12.70;99.90;;;;;;4982315;28;20199;-89
2022/09/26 19:12:47;;;;;;;8.43;2.57;;;12.60;99.90;;;;;;4982350;28;20278;-89
2022/09/26 19:15:16;;;;;;;8.93;2.43;;;12.60;99.90;;;;;;4985697;28;20203;-90
2022/09/26 19:17:43;;;;;;;9.20;3.17;;;12.50;99.90;;;;;;4985930;28;20271;-90
2022/09/26 19:20:09;;;;;;;6.93;2.53;;;12.60;99.90;;;;;;4984713;28;20202;-90
2022/09/26 19:22:37;;;;;;;6.67;2.43;;;12.60;99.90;;;;;;4973491;28;20175;-90
2022/09/26 19:25:05;;;;;;;7.87;2.90;;;12.50;99.90;;;;;;4998297;28;20194;-88
2022/09/26 19:27:51;;;;;;;6.90;2.83;;;12.40;99.90;;;;;;4996780;28;20196;-89
2022/09/26 19:30:20;;;;;;;8.70;3.00;;;12.40;99.90;;;;;;4997448;28;20177;-89
2022/09/26 19:33:04;;;;;;;8.10;3.10;;;12.40;99.90;;;;;;4994213;28;20174;-90
2022/09/26 19:35:38;;;;;;;6.90;2.57;;;12.40;99.90;;;;;;4995513;28;20185;-90
2022/09/26 19:41:40;;;;;;;8.23;3.13;;;12.40;99.90;;;;;;4986601;28;20185;-93
2022/09/26 19:44:41;;;;;;;9.33;3.40;;;12.30;99.90;;;;;;4998683;28;20164;-92
2022/09/26 19:47:19;;;;;;;8.30;3.10;;;12.40;99.90;;;;;;4996560;28;20252;-90
2022/09/26 19:49:51;;;;;;;9.60;3.30;;;12.40;99.90;;;;;;4991894;28;20191;-91
2022/09/26 19:52:51;;;;;;;9.87;3.40;;;12.50;99.90;;;;;;4983333;28;20187;-89
2022/09/26 19:55:28;;;;;;;6.27;2.73;;;12.50;99.90;;;;;;4983521;28;20184;-90
2022/09/26 19:58:10;;;;;;;9.83;3.03;;;12.50;99.90;;;;;;4979697;28;20218;-92
2022/09/26 20:00:40;;;;;;;8.73;3.50;;;12.40;99.90;;;;;;4965027;28;20206;-90
2022/09/26 20:03:13;;;;;;;10.53;2.83;;;12.40;99.90;;;;;;4979823;28;20191;-92
2022/09/26 20:05:41;;;;;;;6.87;3.10;;;12.30;99.90;;;;;;4980028;28;20647;-91
2022/09/26 20:08:25;;;;;;;10.70;3.10;;;12.60;99.90;;;;;;4981230;28;20210;-91
2022/09/26 20:10:58;;;;;;;6.63;2.83;;;12.30;99.90;;;;;;4988128;28;20176;-91
2022/09/26 20:16:22;;;;;;;6.73;2.83;;;12.20;99.90;;;;;;4992399;28;20166;-90
2022/09/26 20:18:54;;;;;;;8.43;3.77;;;12.20;99.90;;;;;;4989130;28;20188;-87
2022/09/26 20:21:37;;;;;;;7.03;2.77;;;12.20;99.90;;;;;;4984838;28;20176;-91
2022/09/26 20:24:07;;;;;;;6.23;2.80;;;12.20;99.90;;;;;;4977248;28;20183;-92
2022/09/26 20:26:37;;;;;;;6.20;2.87;;;12.00;99.90;;;;;;4990041;28;20172;-87
2022/09/26 20:29:14;;;;;;;8.97;2.70;;;11.90;99.90;;;;;;4983184;28;20222;-89
2022/09/26 20:31:54;;;;;;;8.90;3.27;;;11.90;99.90;;;;;;4987320;28;20187;-92
2022/09/26 20:36:59;;;;;;;8.23;3.07;;;11.90;99.90;;;;;;5145566;22;20217;-93
2022/09/26 20:39:31;;;;;;;5.83;2.40;;;11.90;99.90;;;;;;5010127;28;20216;-93
2022/09/26 20:42:26;;;;;;;4.93;2.17;;;11.80;99.90;;;;;;5010294;28;20179;-94
2022/09/26 20:44:55;;;;;;;9.10;2.43;;;11.90;99.90;;;;;;5006230;28;20178;-92
2022/09/26 20:47:26;;;;;;;7.03;3.07;;;11.90;99.90;;;;;;5129040;22;20213;-94
2022/09/26 20:50:12;;;;;;;4.97;2.30;;;11.90;99.90;;;;;;5015305;28;20204;-95
2022/09/26 20:52:38;;;;;;;6.93;2.20;;;11.80;99.90;;;;;;5013317;28;20183;-94
2022/09/26 20:55:06;;;;;;;6.63;2.47;;;11.90;99.90;;;;;;5013893;28;20363;-91
2022/09/26 20:57:35;;;;;;;4.43;1.60;;;11.90;99.90;;;;;;5006466;28;20174;-94
2022/09/26 21:00:05;;;;;;;3.83;1.43;;;11.80;99.90;;;;;;5000209;28;20159;-94
2022/09/26 21:02:53;;;;;;;2.93;1.20;;;11.80;99.90;;;;;;4986051;28;20183;-94
2022/09/26 21:05:26;;;;;;;6.20;1.40;;;11.70;99.90;;;;;;4972474;28;20209;-92
2022/09/26 21:07:57;;;;;;;6.30;1.63;;;11.80;99.90;;;;;;4983365;28;20277;-92
2022/09/26 21:10:30;;;;;;;4.27;1.90;;;11.70;99.90;;;;;;4998089;28;20195;-94
2022/09/26 21:12:59;;;;;;;5.70;2.03;;;11.70;99.90;;;;;;4996197;28;20172;-94
2022/09/26 21:15:32;;;;;;;6.37;1.83;;;11.70;99.90;;;;;;4997408;28;20190;-93
2022/09/26 21:18:00;;;;;;;4.07;1.53;;;11.60;99.90;;;;;;5029615;23;20211;-93
2022/09/26 21:23:02;;;;;;;3.27;1.47;;;11.70;99.90;;;;;;5051028;23;20224;-92
2022/09/26 21:25:33;;;;;;;4.63;1.43;;;11.80;99.90;;;;;;5000926;28;20272;-94
2022/09/26 21:28:31;;;;;;;3.50;1.30;;;11.80;99.90;;;;;;5002235;28;20199;-94
2022/09/26 21:31:04;;;;;;;8.00;1.70;;;11.80;99.90;;;;;;5001695;28;20157;-93
2022/09/26 21:33:30;;;;;;;9.53;1.83;;;11.70;99.90;;;;;;4984931;28;20184;-88
2022/09/26 21:35:59;;;;;;;5.53;1.70;;;11.80;99.90;;;;;;4987844;28;20187;-92
2022/09/26 21:38:26;;;;;;;6.83;1.67;;;11.80;99.90;;;;;;4984208;28;20222;-91
2022/09/26 21:40:54;;;;;;;7.93;2.30;;;12.30;99.90;;;;;;4985482;28;20183;-91
2022/09/26 21:43:24;;;;;;;7.10;1.97;;;12.10;99.90;;;;;;4985498;28;20187;-92
2022/09/26 21:45:49;;;;;;;5.43;1.87;;;12.20;99.90;;;;;;4982835;28;20184;-91
2022/09/26 21:48:16;;;;;;;9.37;2.13;;;12.20;99.90;;;;;;4980927;28;20222;-92
2022/09/26 21:50:50;;;;;;;6.40;1.73;;;12.20;99.90;;;;;;4991034;28;20242;-91
2022/09/26 21:53:20;;;;;;;5.13;1.83;;;12.20;99.90;;;;;;4982056;28;20206;-91
2022/09/26 21:55:54;;;;;;;6.53;2.50;;;12.10;99.90;;;;;;4983556;28;20226;-92
2022/09/26 21:58:25;;;;;;;5.67;2.10;;;12.00;99.90;;;;;;4981690;28;20266;-91
2022/09/26 22:00:54;;;;;;;7.67;1.60;;;12.00;99.90;;;;;;4988302;28;20196;-92
2022/09/26 22:03:23;;;;;;;5.47;1.83;;;12.00;99.90;;;;;;4997172;28;20183;-89
2022/09/26 22:05:49;;;;;;;5.67;1.87;;;12.00;99.90;;;;;;4997341;28;20179;-90
2022/09/26 22:08:17;;;;;;;7.37;2.30;;;12.10;99.90;;;;;;4989106;28;20220;-90
2022/09/26 22:10:46;;;;;;;8.70;2.40;;;12.20;99.90;;;;;;4976473;28;20169;-91
2022/09/26 22:13:34;;;;;;;6.20;2.63;;;12.10;99.90;;;;;;4977788;28;20177;-90
2022/09/26 22:16:08;;;;;;;7.43;2.37;;;12.00;99.90;;;;;;4977519;28;20176;-92
2022/09/26 22:18:36;;;;;;;9.77;2.60;;;11.90;99.90;;;;;;4983357;28;20164;-91
2022/09/26 22:21:09;;;;;;;9.87;2.77;;;11.80;99.90;;;;;;4997473;28;20177;-90
2022/09/26 22:23:36;;;;;;;7.27;2.67;;;11.80;99.90;;;;;;4997632;28;20247;-90
2022/09/26 22:26:49;;;;;;;7.93;2.50;;;12.10;99.90;;;;;;4993984;28;20215;-89
2022/09/26 22:29:37;;;;;;;8.40;2.73;;;11.80;99.90;;;;;;4975800;28;20219;-89
2022/09/26 22:32:03;;;;;;;6.90;2.90;;;11.80;99.90;;;;;;4983975;28;20176;-92
2022/09/26 22:34:32;;;;;;;7.40;2.67;;;11.80;99.90;;;;;;4990289;28;20180;-92
2022/09/26 22:36:57;;;;;;;7.37;2.33;;;11.80;99.90;;;;;;4992310;28;20172;-92
2022/09/26 22:39:26;;;;;;;6.17;1.77;;;11.60;99.90;;;;;;4986658;28;20579;-91
2022/09/26 22:41:52;;;;;;;7.63;2.27;;;11.60;99.90;;;;;;4977435;28;20175;-90
2022/09/26 22:44:17;;;;;;;5.67;2.40;;;11.70;99.90;;;;;;4974873;28;20180;-90
2022/09/26 22:46:43;;;;;;;9.57;2.70;;;11.90;99.90;;;;;;4974036;28;20214;-90
2022/09/26 22:49:09;;;;;;;8.00;2.47;;;11.80;99.90;;;;;;4957785;28;20251;-91
2022/09/26 22:51:35;;;;;;;8.47;2.57;;;11.90;99.90;;;;;;4979872;28;20227;-92
2022/09/26 22:54:00;;;;;;;10.20;2.73;;;12.00;99.90;;;;;;4993022;28;20183;-90
2022/09/26 22:56:28;;;;;;;6.03;2.10;;;11.80;99.90;;;;;;4989508;28;20275;-91
2022/09/26 22:58:54;;;;;;;6.37;1.70;;;11.80;99.90;;;;;;4974950;28;20183;-91
2022/09/26 23:01:27;;;;;;;4.33;1.97;;;11.80;99.90;;;;;;4973540;28;20200;-92
2022/09/26 23:03:53;;;;;;;5.97;1.67;;;11.70;99.90;;;;;;4973576;28;20215;-91